sensor_id;sensor_type;location;lat;lon;timestamp;P1;durP1;ratioP1;P2;durP2;ratioP2
5414;SDS011;2730;51.512;7.504;2023-04-24T00:00:54;0.80;;;0.80;;
5414;SDS011;2730;51.512;7.504;2023-04-24T00:03:22;0.90;;;0.90;;
5414;SDS011;2730;51.512;7.504;2023-04-24T00:05:49;2.25;;;1.05;;
5414;SDS011;2730;51.512;7.504;2023-04-24T00:08:17;2.15;;;0.75;;
5414;SDS011;2730;51.512;7.504;2023-04-24T00:10:44;0.80;;;0.80;;
5414;SDS011;2730;51.512;7.504;2023-04-24T00:13:10;1.00;;;0.90;;
5414;SDS011;2730;51.512;7.504;2023-04-24T00:15:37;0.80;;;0.80;;
5414;SDS011;2730;51.512;7.504;2023-04-24T00:18:05;1.20;;;1.08;;
5414;SDS011;2730;51.512;7.504;2023-04-24T00:20:32;0.80;;;0.80;;
5414;SDS011;2730;51.512;7.504;2023-04-24T00:23:00;0.70;;;0.70;;
5414;SDS011;2730;51.512;7.504;2023-04-24T00:25:27;1.30;;;0.90;;
5414;SDS011;2730;51.512;7.504;2023-04-24T00:27:54;0.82;;;0.82;;
5414;SDS011;2730;51.512;7.504;2023-04-24T00:30:20;2.83;;;1.00;;
5414;SDS011;2730;51.512;7.504;2023-04-24T00:32:47;1.15;;;0.90;;
5414;SDS011;2730;51.512;7.504;2023-04-24T00:35:15;2.03;;;1.02;;
5414;SDS011;2730;51.512;7.504;2023-04-24T00:37:42;0.90;;;0.90;;
5414;SDS011;2730;51.512;7.504;2023-04-24T00:40:09;0.90;;;0.90;;
5414;SDS011;2730;51.512;7.504;2023-04-24T00:42:36;0.98;;;0.80;;
5414;SDS011;2730;51.512;7.504;2023-04-24T00:45:04;1.10;;;0.80;;
5414;SDS011;2730;51.512;7.504;2023-04-24T00:47:32;1.20;;;1.10;;
5414;SDS011;2730;51.512;7.504;2023-04-24T00:50:00;0.93;;;0.90;;
5414;SDS011;2730;51.512;7.504;2023-04-24T00:52:29;0.90;;;0.90;;
5414;SDS011;2730;51.512;7.504;2023-04-24T00:54:57;1.55;;;0.90;;
5414;SDS011;2730;51.512;7.504;2023-04-24T00:57:23;4.45;;;1.30;;
5414;SDS011;2730;51.512;7.504;2023-04-24T00:59:50;1.10;;;1.00;;
5414;SDS011;2730;51.512;7.504;2023-04-24T01:02:18;1.13;;;1.02;;
5414;SDS011;2730;51.512;7.504;2023-04-24T01:04:47;1.17;;;1.08;;
5414;SDS011;2730;51.512;7.504;2023-04-24T01:07:16;1.65;;;1.10;;
5414;SDS011;2730;51.512;7.504;2023-04-24T01:09:47;3.40;;;1.20;;
5414;SDS011;2730;51.512;7.504;2023-04-24T01:12:16;4.13;;;1.30;;
5414;SDS011;2730;51.512;7.504;2023-04-24T01:14:43;1.10;;;1.00;;
5414;SDS011;2730;51.512;7.504;2023-04-24T01:17:10;1.00;;;1.00;;
5414;SDS011;2730;51.512;7.504;2023-04-24T01:19:37;1.30;;;1.20;;
5414;SDS011;2730;51.512;7.504;2023-04-24T01:22:08;1.40;;;1.20;;
5414;SDS011;2730;51.512;7.504;2023-04-24T01:24:37;3.03;;;1.20;;
5414;SDS011;2730;51.512;7.504;2023-04-24T01:27:04;1.00;;;1.00;;
5414;SDS011;2730;51.512;7.504;2023-04-24T01:29:30;1.30;;;1.20;;
5414;SDS011;2730;51.512;7.504;2023-04-24T01:31:58;1.55;;;1.42;;
5414;SDS011;2730;51.512;7.504;2023-04-24T01:34:25;1.20;;;1.20;;
5414;SDS011;2730;51.512;7.504;2023-04-24T01:36:52;1.20;;;1.10;;
5414;SDS011;2730;51.512;7.504;2023-04-24T01:39:20;2.35;;;1.35;;
5414;SDS011;2730;51.512;7.504;2023-04-24T01:41:48;1.30;;;1.20;;
5414;SDS011;2730;51.512;7.504;2023-04-24T01:44:15;1.25;;;1.15;;
5414;SDS011;2730;51.512;7.504;2023-04-24T01:46:43;1.05;;;1.00;;
5414;SDS011;2730;51.512;7.504;2023-04-24T01:49:10;4.10;;;1.40;;
5414;SDS011;2730;51.512;7.504;2023-04-24T01:51:37;1.30;;;1.20;;
5414;SDS011;2730;51.512;7.504;2023-04-24T01:54:04;2.75;;;1.10;;
5414;SDS011;2730;51.512;7.504;2023-04-24T01:56:32;1.63;;;1.27;;
5414;SDS011;2730;51.512;7.504;2023-04-24T01:59:00;1.30;;;1.20;;
5414;SDS011;2730;51.512;7.504;2023-04-24T02:01:32;3.30;;;1.33;;
5414;SDS011;2730;51.512;7.504;2023-04-24T02:04:00;5.90;;;1.40;;
5414;SDS011;2730;51.512;7.504;2023-04-24T02:06:26;1.83;;;1.30;;
5414;SDS011;2730;51.512;7.504;2023-04-24T02:08:53;3.08;;;1.10;;
5414;SDS011;2730;51.512;7.504;2023-04-24T02:11:20;1.80;;;1.70;;
5414;SDS011;2730;51.512;7.504;2023-04-24T02:13:48;1.45;;;1.13;;
5414;SDS011;2730;51.512;7.504;2023-04-24T02:16:15;2.65;;;1.15;;
5414;SDS011;2730;51.512;7.504;2023-04-24T02:18:42;1.40;;;1.30;;
5414;SDS011;2730;51.512;7.504;2023-04-24T02:21:09;1.38;;;1.27;;
5414;SDS011;2730;51.512;7.504;2023-04-24T02:23:35;1.75;;;1.30;;
5414;SDS011;2730;51.512;7.504;2023-04-24T02:26:02;1.63;;;1.52;;
5414;SDS011;2730;51.512;7.504;2023-04-24T02:28:29;2.47;;;1.42;;
5414;SDS011;2730;51.512;7.504;2023-04-24T02:30:57;3.42;;;1.75;;
5414;SDS011;2730;51.512;7.504;2023-04-24T02:33:25;1.30;;;1.20;;
5414;SDS011;2730;51.512;7.504;2023-04-24T02:35:51;1.60;;;1.50;;
5414;SDS011;2730;51.512;7.504;2023-04-24T02:38:18;2.15;;;1.83;;
5414;SDS011;2730;51.512;7.504;2023-04-24T02:40:45;1.90;;;1.80;;
5414;SDS011;2730;51.512;7.504;2023-04-24T02:43:11;5.22;;;2.22;;
5414;SDS011;2730;51.512;7.504;2023-04-24T02:45:38;5.20;;;1.95;;
5414;SDS011;2730;51.512;7.504;2023-04-24T02:48:06;2.38;;;2.05;;
5414;SDS011;2730;51.512;7.504;2023-04-24T02:50:33;3.13;;;2.00;;
5414;SDS011;2730;51.512;7.504;2023-04-24T02:53:00;2.03;;;1.92;;
5414;SDS011;2730;51.512;7.504;2023-04-24T02:55:27;2.92;;;2.63;;
5414;SDS011;2730;51.512;7.504;2023-04-24T02:57:53;2.80;;;2.60;;
5414;SDS011;2730;51.512;7.504;2023-04-24T03:00:20;3.88;;;2.40;;
5414;SDS011;2730;51.512;7.504;2023-04-24T03:02:47;2.45;;;2.25;;
5414;SDS011;2730;51.512;7.504;2023-04-24T03:05:16;4.25;;;2.90;;
5414;SDS011;2730;51.512;7.504;2023-04-24T03:07:42;6.13;;;3.45;;
5414;SDS011;2730;51.512;7.504;2023-04-24T03:10:10;5.88;;;3.65;;
5414;SDS011;2730;51.512;7.504;2023-04-24T03:12:37;10.07;;;4.10;;
5414;SDS011;2730;51.512;7.504;2023-04-24T03:15:04;6.18;;;4.05;;
5414;SDS011;2730;51.512;7.504;2023-04-24T03:17:31;4.68;;;3.85;;
5414;SDS011;2730;51.512;7.504;2023-04-24T03:19:58;6.40;;;5.18;;
5414;SDS011;2730;51.512;7.504;2023-04-24T03:22:26;8.27;;;6.05;;
5414;SDS011;2730;51.512;7.504;2023-04-24T03:24:53;5.32;;;4.65;;
5414;SDS011;2730;51.512;7.504;2023-04-24T03:27:21;10.35;;;5.20;;
5414;SDS011;2730;51.512;7.504;2023-04-24T03:29:48;8.50;;;5.43;;
5414;SDS011;2730;51.512;7.504;2023-04-24T03:32:18;8.63;;;5.18;;
5414;SDS011;2730;51.512;7.504;2023-04-24T03:34:45;10.18;;;5.50;;
5414;SDS011;2730;51.512;7.504;2023-04-24T03:37:12;11.15;;;6.07;;
5414;SDS011;2730;51.512;7.504;2023-04-24T03:39:40;10.18;;;5.72;;
5414;SDS011;2730;51.512;7.504;2023-04-24T03:42:07;10.77;;;6.03;;
5414;SDS011;2730;51.512;7.504;2023-04-24T03:44:34;10.48;;;6.22;;
5414;SDS011;2730;51.512;7.504;2023-04-24T03:47:01;8.70;;;5.70;;
5414;SDS011;2730;51.512;7.504;2023-04-24T03:49:27;15.45;;;5.82;;
5414;SDS011;2730;51.512;7.504;2023-04-24T03:51:54;13.82;;;5.32;;
5414;SDS011;2730;51.512;7.504;2023-04-24T03:54:21;13.63;;;6.60;;
5414;SDS011;2730;51.512;7.504;2023-04-24T03:56:49;9.80;;;5.82;;
5414;SDS011;2730;51.512;7.504;2023-04-24T03:59:16;9.73;;;5.90;;
5414;SDS011;2730;51.512;7.504;2023-04-24T04:01:43;9.20;;;6.50;;
5414;SDS011;2730;51.512;7.504;2023-04-24T04:04:10;13.63;;;5.93;;
5414;SDS011;2730;51.512;7.504;2023-04-24T04:06:37;14.40;;;6.80;;
5414;SDS011;2730;51.512;7.504;2023-04-24T04:09:04;10.07;;;6.47;;
5414;SDS011;2730;51.512;7.504;2023-04-24T04:11:32;14.60;;;6.40;;
5414;SDS011;2730;51.512;7.504;2023-04-24T04:14:00;15.20;;;7.15;;
5414;SDS011;2730;51.512;7.504;2023-04-24T04:16:26;9.90;;;6.40;;
5414;SDS011;2730;51.512;7.504;2023-04-24T04:18:53;13.48;;;7.22;;
5414;SDS011;2730;51.512;7.504;2023-04-24T04:21:20;11.57;;;7.20;;
5414;SDS011;2730;51.512;7.504;2023-04-24T04:23:47;10.35;;;7.03;;
5414;SDS011;2730;51.512;7.504;2023-04-24T04:26:14;11.20;;;7.13;;
5414;SDS011;2730;51.512;7.504;2023-04-24T04:28:41;15.13;;;7.88;;
5414;SDS011;2730;51.512;7.504;2023-04-24T04:31:11;12.40;;;7.28;;
5414;SDS011;2730;51.512;7.504;2023-04-24T04:33:37;16.17;;;7.43;;
5414;SDS011;2730;51.512;7.504;2023-04-24T04:36:04;16.98;;;6.85;;
5414;SDS011;2730;51.512;7.504;2023-04-24T04:38:32;13.80;;;7.18;;
5414;SDS011;2730;51.512;7.504;2023-04-24T04:41:00;10.75;;;6.78;;
5414;SDS011;2730;51.512;7.504;2023-04-24T04:43:27;12.00;;;7.80;;
5414;SDS011;2730;51.512;7.504;2023-04-24T04:45:54;11.88;;;7.20;;
5414;SDS011;2730;51.512;7.504;2023-04-24T04:48:22;13.15;;;7.65;;
5414;SDS011;2730;51.512;7.504;2023-04-24T04:50:49;10.45;;;7.10;;
5414;SDS011;2730;51.512;7.504;2023-04-24T04:53:16;15.20;;;8.07;;
5414;SDS011;2730;51.512;7.504;2023-04-24T04:55:42;15.57;;;8.15;;
5414;SDS011;2730;51.512;7.504;2023-04-24T04:58:09;11.25;;;7.25;;
5414;SDS011;2730;51.512;7.504;2023-04-24T05:00:36;12.13;;;7.70;;
5414;SDS011;2730;51.512;7.504;2023-04-24T05:03:03;14.30;;;7.20;;
5414;SDS011;2730;51.512;7.504;2023-04-24T05:05:31;15.60;;;8.75;;
5414;SDS011;2730;51.512;7.504;2023-04-24T05:07:58;12.55;;;8.02;;
5414;SDS011;2730;51.512;7.504;2023-04-24T05:10:25;13.65;;;7.70;;
5414;SDS011;2730;51.512;7.504;2023-04-24T05:12:51;13.65;;;7.90;;
5414;SDS011;2730;51.512;7.504;2023-04-24T05:15:18;12.25;;;8.10;;
5414;SDS011;2730;51.512;7.504;2023-04-24T05:17:45;13.02;;;8.00;;
5414;SDS011;2730;51.512;7.504;2023-04-24T05:20:12;14.20;;;8.25;;
5414;SDS011;2730;51.512;7.504;2023-04-24T05:22:41;11.80;;;8.00;;
5414;SDS011;2730;51.512;7.504;2023-04-24T05:25:08;12.38;;;8.35;;
5414;SDS011;2730;51.512;7.504;2023-04-24T05:27:35;15.13;;;8.32;;
5414;SDS011;2730;51.512;7.504;2023-04-24T05:30:02;20.83;;;8.10;;
5414;SDS011;2730;51.512;7.504;2023-04-24T05:32:29;19.13;;;8.90;;
5414;SDS011;2730;51.512;7.504;2023-04-24T05:34:56;21.17;;;8.10;;
5414;SDS011;2730;51.512;7.504;2023-04-24T05:37:23;11.13;;;7.55;;
5414;SDS011;2730;51.512;7.504;2023-04-24T05:39:51;12.95;;;7.13;;
5414;SDS011;2730;51.512;7.504;2023-04-24T05:42:18;10.20;;;6.80;;
5414;SDS011;2730;51.512;7.504;2023-04-24T05:44:44;11.07;;;6.25;;
5414;SDS011;2730;51.512;7.504;2023-04-24T05:47:11;10.65;;;6.45;;
5414;SDS011;2730;51.512;7.504;2023-04-24T05:49:38;9.18;;;6.80;;
5414;SDS011;2730;51.512;7.504;2023-04-24T05:52:05;10.23;;;6.10;;
5414;SDS011;2730;51.512;7.504;2023-04-24T05:54:33;8.68;;;6.03;;
5414;SDS011;2730;51.512;7.504;2023-04-24T05:57:01;13.00;;;6.50;;
5414;SDS011;2730;51.512;7.504;2023-04-24T05:59:32;11.50;;;6.55;;
5414;SDS011;2730;51.512;7.504;2023-04-24T06:01:59;8.77;;;6.00;;
5414;SDS011;2730;51.512;7.504;2023-04-24T06:04:26;10.00;;;6.05;;
5414;SDS011;2730;51.512;7.504;2023-04-24T06:06:52;9.57;;;5.88;;
5414;SDS011;2730;51.512;7.504;2023-04-24T06:09:21;6.13;;;4.75;;
5414;SDS011;2730;51.512;7.504;2023-04-24T06:11:48;11.57;;;6.57;;
5414;SDS011;2730;51.512;7.504;2023-04-24T06:14:16;10.43;;;6.20;;
5414;SDS011;2730;51.512;7.504;2023-04-24T06:16:43;9.75;;;6.07;;
5414;SDS011;2730;51.512;7.504;2023-04-24T06:19:10;9.35;;;6.40;;
5414;SDS011;2730;51.512;7.504;2023-04-24T06:21:37;11.45;;;6.03;;
5414;SDS011;2730;51.512;7.504;2023-04-24T06:24:04;6.75;;;5.47;;
5414;SDS011;2730;51.512;7.504;2023-04-24T06:26:30;9.07;;;6.05;;
5414;SDS011;2730;51.512;7.504;2023-04-24T06:28:57;6.00;;;5.40;;
5414;SDS011;2730;51.512;7.504;2023-04-24T06:31:26;8.45;;;5.32;;
5414;SDS011;2730;51.512;7.504;2023-04-24T06:33:53;11.00;;;6.10;;
5414;SDS011;2730;51.512;7.504;2023-04-24T06:36:20;6.53;;;5.80;;
5414;SDS011;2730;51.512;7.504;2023-04-24T06:38:46;5.78;;;4.75;;
5414;SDS011;2730;51.512;7.504;2023-04-24T06:41:13;5.85;;;5.20;;
5414;SDS011;2730;51.512;7.504;2023-04-24T06:43:40;9.38;;;5.25;;
5414;SDS011;2730;51.512;7.504;2023-04-24T06:46:07;5.15;;;4.40;;
5414;SDS011;2730;51.512;7.504;2023-04-24T06:48:35;8.40;;;4.47;;
5414;SDS011;2730;51.512;7.504;2023-04-24T06:51:01;6.75;;;4.25;;
5414;SDS011;2730;51.512;7.504;2023-04-24T06:53:28;7.60;;;5.00;;
5414;SDS011;2730;51.512;7.504;2023-04-24T06:55:55;6.03;;;5.43;;
5414;SDS011;2730;51.512;7.504;2023-04-24T06:58:22;6.65;;;4.78;;
5414;SDS011;2730;51.512;7.504;2023-04-24T07:00:50;4.82;;;4.32;;
5414;SDS011;2730;51.512;7.504;2023-04-24T07:03:16;5.95;;;4.00;;
5414;SDS011;2730;51.512;7.504;2023-04-24T07:05:44;5.85;;;4.00;;
5414;SDS011;2730;51.512;7.504;2023-04-24T07:08:12;4.07;;;3.78;;
5414;SDS011;2730;51.512;7.504;2023-04-24T07:10:42;8.70;;;4.13;;
5414;SDS011;2730;51.512;7.504;2023-04-24T07:13:08;3.83;;;3.42;;
5414;SDS011;2730;51.512;7.504;2023-04-24T07:15:35;3.92;;;3.63;;
5414;SDS011;2730;51.512;7.504;2023-04-24T07:18:02;4.68;;;3.78;;
5414;SDS011;2730;51.512;7.504;2023-04-24T07:20:29;3.75;;;3.45;;
5414;SDS011;2730;51.512;7.504;2023-04-24T07:22:57;3.90;;;3.50;;
5414;SDS011;2730;51.512;7.504;2023-04-24T07:25:24;4.40;;;4.00;;
5414;SDS011;2730;51.512;7.504;2023-04-24T07:27:51;8.00;;;3.88;;
5414;SDS011;2730;51.512;7.504;2023-04-24T07:30:18;4.60;;;4.20;;
5414;SDS011;2730;51.512;7.504;2023-04-24T07:32:44;4.18;;;3.58;;
5414;SDS011;2730;51.512;7.504;2023-04-24T07:35:11;3.75;;;3.17;;
5414;SDS011;2730;51.512;7.504;2023-04-24T07:37:38;3.10;;;2.90;;
5414;SDS011;2730;51.512;7.504;2023-04-24T07:40:07;4.38;;;3.45;;
5414;SDS011;2730;51.512;7.504;2023-04-24T07:42:34;2.85;;;2.65;;
5414;SDS011;2730;51.512;7.504;2023-04-24T07:45:01;3.22;;;2.55;;
5414;SDS011;2730;51.512;7.504;2023-04-24T07:47:28;11.95;;;2.30;;
5414;SDS011;2730;51.512;7.504;2023-04-24T07:49:55;2.25;;;2.05;;
5414;SDS011;2730;51.512;7.504;2023-04-24T07:52:22;2.58;;;1.58;;
5414;SDS011;2730;51.512;7.504;2023-04-24T07:54:49;1.98;;;1.88;;
5414;SDS011;2730;51.512;7.504;2023-04-24T07:57:19;1.75;;;1.65;;
5414;SDS011;2730;51.512;7.504;2023-04-24T07:59:45;2.20;;;1.98;;
5414;SDS011;2730;51.512;7.504;2023-04-24T08:02:12;2.35;;;2.20;;
5414;SDS011;2730;51.512;7.504;2023-04-24T08:04:39;2.40;;;1.88;;
5414;SDS011;2730;51.512;7.504;2023-04-24T08:07:06;2.40;;;1.48;;
5414;SDS011;2730;51.512;7.504;2023-04-24T08:09:33;2.70;;;1.75;;
5414;SDS011;2730;51.512;7.504;2023-04-24T08:12:00;1.50;;;1.40;;
5414;SDS011;2730;51.512;7.504;2023-04-24T08:14:28;2.95;;;1.58;;
5414;SDS011;2730;51.512;7.504;2023-04-24T08:16:55;1.30;;;1.20;;
5414;SDS011;2730;51.512;7.504;2023-04-24T08:19:24;1.35;;;1.00;;
5414;SDS011;2730;51.512;7.504;2023-04-24T08:21:51;2.45;;;1.30;;
5414;SDS011;2730;51.512;7.504;2023-04-24T08:24:18;1.40;;;1.30;;
5414;SDS011;2730;51.512;7.504;2023-04-24T08:26:45;1.55;;;1.45;;
5414;SDS011;2730;51.512;7.504;2023-04-24T08:29:15;1.48;;;1.38;;
5414;SDS011;2730;51.512;7.504;2023-04-24T08:31:43;1.30;;;1.20;;
5414;SDS011;2730;51.512;7.504;2023-04-24T08:34:10;2.05;;;1.63;;
5414;SDS011;2730;51.512;7.504;2023-04-24T08:36:37;3.72;;;1.95;;
5414;SDS011;2730;51.512;7.504;2023-04-24T08:39:05;1.50;;;1.40;;
5414;SDS011;2730;51.512;7.504;2023-04-24T08:41:32;1.77;;;1.10;;
5414;SDS011;2730;51.512;7.504;2023-04-24T08:44:01;1.58;;;1.45;;
5414;SDS011;2730;51.512;7.504;2023-04-24T08:46:28;0.70;;;0.70;;
5414;SDS011;2730;51.512;7.504;2023-04-24T08:48:57;0.88;;;0.88;;
5414;SDS011;2730;51.512;7.504;2023-04-24T08:51:25;0.70;;;0.70;;
5414;SDS011;2730;51.512;7.504;2023-04-24T08:53:53;3.42;;;1.80;;
5414;SDS011;2730;51.512;7.504;2023-04-24T08:56:21;0.90;;;0.70;;
5414;SDS011;2730;51.512;7.504;2023-04-24T08:58:49;0.80;;;0.80;;
5414;SDS011;2730;51.512;7.504;2023-04-24T09:01:17;0.80;;;0.75;;
5414;SDS011;2730;51.512;7.504;2023-04-24T09:03:45;1.90;;;0.80;;
5414;SDS011;2730;51.512;7.504;2023-04-24T09:06:16;1.60;;;0.80;;
5414;SDS011;2730;51.512;7.504;2023-04-24T09:08:45;0.73;;;0.73;;
5414;SDS011;2730;51.512;7.504;2023-04-24T09:11:13;2.80;;;0.80;;
5414;SDS011;2730;51.512;7.504;2023-04-24T09:13:40;1.55;;;0.70;;
5414;SDS011;2730;51.512;7.504;2023-04-24T09:16:07;2.03;;;0.80;;
5414;SDS011;2730;51.512;7.504;2023-04-24T09:18:34;2.97;;;0.88;;
5414;SDS011;2730;51.512;7.504;2023-04-24T09:21:01;0.80;;;0.80;;
5414;SDS011;2730;51.512;7.504;2023-04-24T09:23:30;1.50;;;1.10;;
5414;SDS011;2730;51.512;7.504;2023-04-24T09:25:58;0.93;;;0.70;;
5414;SDS011;2730;51.512;7.504;2023-04-24T09:28:26;1.20;;;1.10;;
5414;SDS011;2730;51.512;7.504;2023-04-24T09:31:01;1.00;;;1.00;;
5414;SDS011;2730;51.512;7.504;2023-04-24T09:33:29;1.00;;;1.00;;
5414;SDS011;2730;51.512;7.504;2023-04-24T09:35:56;2.30;;;1.00;;
5414;SDS011;2730;51.512;7.504;2023-04-24T09:38:31;1.75;;;1.20;;
5414;SDS011;2730;51.512;7.504;2023-04-24T09:41:00;2.45;;;1.38;;
5414;SDS011;2730;51.512;7.504;2023-04-24T09:43:28;1.35;;;1.25;;
5414;SDS011;2730;51.512;7.504;2023-04-24T09:45:56;2.13;;;1.60;;
5414;SDS011;2730;51.512;7.504;2023-04-24T09:48:30;1.65;;;1.55;;
5414;SDS011;2730;51.512;7.504;2023-04-24T09:50:57;2.20;;;1.98;;
5414;SDS011;2730;51.512;7.504;2023-04-24T09:53:25;1.80;;;1.70;;
5414;SDS011;2730;51.512;7.504;2023-04-24T09:55:54;1.92;;;1.83;;
5414;SDS011;2730;51.512;7.504;2023-04-24T09:58:24;2.55;;;1.65;;
5414;SDS011;2730;51.512;7.504;2023-04-24T10:00:53;2.25;;;1.80;;
5414;SDS011;2730;51.512;7.504;2023-04-24T10:03:22;1.85;;;1.63;;
5414;SDS011;2730;51.512;7.504;2023-04-24T10:05:51;3.10;;;2.83;;
5414;SDS011;2730;51.512;7.504;2023-04-24T10:08:18;2.95;;;1.92;;
5414;SDS011;2730;51.512;7.504;2023-04-24T10:10:46;2.60;;;1.95;;
5414;SDS011;2730;51.512;7.504;2023-04-24T10:13:14;1.95;;;1.77;;
5414;SDS011;2730;51.512;7.504;2023-04-24T10:15:41;2.08;;;1.98;;
5414;SDS011;2730;51.512;7.504;2023-04-24T10:18:08;2.53;;;2.17;;
5414;SDS011;2730;51.512;7.504;2023-04-24T10:20:37;2.55;;;2.35;;
5414;SDS011;2730;51.512;7.504;2023-04-24T10:23:05;1.88;;;1.77;;
5414;SDS011;2730;51.512;7.504;2023-04-24T10:25:33;2.22;;;2.00;;
5414;SDS011;2730;51.512;7.504;2023-04-24T10:28:02;2.17;;;2.08;;
5414;SDS011;2730;51.512;7.504;2023-04-24T10:30:31;5.15;;;2.20;;
5414;SDS011;2730;51.512;7.504;2023-04-24T10:33:01;1.95;;;1.75;;
5414;SDS011;2730;51.512;7.504;2023-04-24T10:35:30;3.75;;;1.70;;
5414;SDS011;2730;51.512;7.504;2023-04-24T10:37:58;1.90;;;1.80;;
5414;SDS011;2730;51.512;7.504;2023-04-24T10:40:29;3.78;;;2.40;;
5414;SDS011;2730;51.512;7.504;2023-04-24T10:42:57;3.20;;;2.00;;
5414;SDS011;2730;51.512;7.504;2023-04-24T10:45:24;4.43;;;2.08;;
5414;SDS011;2730;51.512;7.504;2023-04-24T10:47:53;2.40;;;2.20;;
5414;SDS011;2730;51.512;7.504;2023-04-24T10:50:23;3.60;;;2.50;;
5414;SDS011;2730;51.512;7.504;2023-04-24T10:52:51;2.30;;;2.20;;
5414;SDS011;2730;51.512;7.504;2023-04-24T10:58:08;6.22;;;3.08;;
5414;SDS011;2730;51.512;7.504;2023-04-24T11:00:36;4.15;;;3.08;;
5414;SDS011;2730;51.512;7.504;2023-04-24T11:03:05;5.70;;;3.30;;
5414;SDS011;2730;51.512;7.504;2023-04-24T11:05:49;4.25;;;2.75;;
5414;SDS011;2730;51.512;7.504;2023-04-24T11:08:22;4.82;;;2.70;;
5414;SDS011;2730;51.512;7.504;2023-04-24T11:10:54;2.67;;;2.47;;
5414;SDS011;2730;51.512;7.504;2023-04-24T11:16:35;3.90;;;3.40;;
5414;SDS011;2730;51.512;7.504;2023-04-24T11:19:18;7.30;;;4.03;;
5414;SDS011;2730;51.512;7.504;2023-04-24T11:21:48;11.57;;;4.15;;
5414;SDS011;2730;51.512;7.504;2023-04-24T11:24:24;12.77;;;4.82;;
5414;SDS011;2730;51.512;7.504;2023-04-24T11:26:53;8.10;;;3.90;;
5414;SDS011;2730;51.512;7.504;2023-04-24T11:29:20;9.75;;;4.55;;
5414;SDS011;2730;51.512;7.504;2023-04-24T11:31:47;8.77;;;4.55;;
5414;SDS011;2730;51.512;7.504;2023-04-24T11:34:17;15.63;;;5.80;;
5414;SDS011;2730;51.512;7.504;2023-04-24T11:36:44;11.20;;;4.20;;
5414;SDS011;2730;51.512;7.504;2023-04-24T11:39:12;14.55;;;4.50;;
5414;SDS011;2730;51.512;7.504;2023-04-24T11:41:39;7.68;;;4.70;;
5414;SDS011;2730;51.512;7.504;2023-04-24T11:44:08;10.68;;;5.22;;
5414;SDS011;2730;51.512;7.504;2023-04-24T11:46:36;11.52;;;6.10;;
5414;SDS011;2730;51.512;7.504;2023-04-24T11:49:05;7.93;;;5.30;;
5414;SDS011;2730;51.512;7.504;2023-04-24T11:51:33;11.25;;;5.07;;
5414;SDS011;2730;51.512;7.504;2023-04-24T11:54:00;13.63;;;5.18;;
5414;SDS011;2730;51.512;7.504;2023-04-24T11:56:28;20.33;;;6.78;;
5414;SDS011;2730;51.512;7.504;2023-04-24T11:58:54;20.45;;;6.40;;
5414;SDS011;2730;51.512;7.504;2023-04-24T12:01:21;20.42;;;7.95;;
5414;SDS011;2730;51.512;7.504;2023-04-24T12:03:48;14.05;;;5.90;;
5414;SDS011;2730;51.512;7.504;2023-04-24T12:06:16;19.05;;;7.20;;
5414;SDS011;2730;51.512;7.504;2023-04-24T12:08:47;11.00;;;6.13;;
5414;SDS011;2730;51.512;7.504;2023-04-24T12:11:15;9.52;;;5.90;;
5414;SDS011;2730;51.512;7.504;2023-04-24T12:13:44;14.95;;;6.90;;
5414;SDS011;2730;51.512;7.504;2023-04-24T12:16:11;13.93;;;5.68;;
5414;SDS011;2730;51.512;7.504;2023-04-24T12:18:42;12.02;;;6.43;;
5414;SDS011;2730;51.512;7.504;2023-04-24T12:21:20;20.00;;;7.32;;
5414;SDS011;2730;51.512;7.504;2023-04-24T12:23:49;16.67;;;6.65;;
5414;SDS011;2730;51.512;7.504;2023-04-24T12:26:17;18.52;;;7.18;;
5414;SDS011;2730;51.512;7.504;2023-04-24T12:28:46;10.40;;;4.57;;
5414;SDS011;2730;51.512;7.504;2023-04-24T12:31:14;16.73;;;5.15;;
5414;SDS011;2730;51.512;7.504;2023-04-24T12:33:41;10.20;;;5.28;;
5414;SDS011;2730;51.512;7.504;2023-04-24T12:36:09;10.70;;;4.78;;
5414;SDS011;2730;51.512;7.504;2023-04-24T12:38:37;10.48;;;4.63;;
5414;SDS011;2730;51.512;7.504;2023-04-24T12:41:08;11.07;;;4.57;;
5414;SDS011;2730;51.512;7.504;2023-04-24T12:43:36;15.45;;;5.35;;
5414;SDS011;2730;51.512;7.504;2023-04-24T12:46:03;8.70;;;4.95;;
5414;SDS011;2730;51.512;7.504;2023-04-24T12:48:30;6.90;;;4.55;;
5414;SDS011;2730;51.512;7.504;2023-04-24T12:50:58;13.45;;;4.80;;
5414;SDS011;2730;51.512;7.504;2023-04-24T12:53:26;7.15;;;4.57;;
5414;SDS011;2730;51.512;7.504;2023-04-24T12:55:55;16.15;;;4.35;;
5414;SDS011;2730;51.512;7.504;2023-04-24T12:58:23;7.88;;;3.60;;
5414;SDS011;2730;51.512;7.504;2023-04-24T13:00:50;5.38;;;3.45;;
5414;SDS011;2730;51.512;7.504;2023-04-24T13:03:17;8.70;;;4.95;;
5414;SDS011;2730;51.512;7.504;2023-04-24T13:05:44;7.50;;;4.60;;
5414;SDS011;2730;51.512;7.504;2023-04-24T13:08:11;6.20;;;3.42;;
5414;SDS011;2730;51.512;7.504;2023-04-24T13:10:38;4.20;;;3.35;;
5414;SDS011;2730;51.512;7.504;2023-04-24T13:13:06;8.30;;;3.42;;
5414;SDS011;2730;51.512;7.504;2023-04-24T13:15:34;6.65;;;3.75;;
5414;SDS011;2730;51.512;7.504;2023-04-24T13:18:01;13.27;;;3.70;;
5414;SDS011;2730;51.512;7.504;2023-04-24T13:20:28;9.05;;;3.53;;
5414;SDS011;2730;51.512;7.504;2023-04-24T13:22:55;8.55;;;3.47;;
5414;SDS011;2730;51.512;7.504;2023-04-24T13:25:21;5.15;;;3.50;;
5414;SDS011;2730;51.512;7.504;2023-04-24T13:27:49;7.32;;;3.88;;
5414;SDS011;2730;51.512;7.504;2023-04-24T13:30:16;8.13;;;3.25;;
5414;SDS011;2730;51.512;7.504;2023-04-24T13:32:45;10.43;;;4.15;;
5414;SDS011;2730;51.512;7.504;2023-04-24T13:35:11;6.70;;;3.38;;
5414;SDS011;2730;51.512;7.504;2023-04-24T13:37:38;6.28;;;3.50;;
5414;SDS011;2730;51.512;7.504;2023-04-24T13:40:05;5.13;;;2.75;;
5414;SDS011;2730;51.512;7.504;2023-04-24T13:42:33;8.27;;;3.15;;
5414;SDS011;2730;51.512;7.504;2023-04-24T13:44:59;9.57;;;3.13;;
5414;SDS011;2730;51.512;7.504;2023-04-24T13:47:26;4.20;;;3.10;;
5414;SDS011;2730;51.512;7.504;2023-04-24T13:49:54;4.82;;;2.75;;
5414;SDS011;2730;51.512;7.504;2023-04-24T13:52:21;6.18;;;2.80;;
5414;SDS011;2730;51.512;7.504;2023-04-24T13:54:48;6.40;;;2.63;;
5414;SDS011;2730;51.512;7.504;2023-04-24T13:57:15;3.78;;;2.50;;
5414;SDS011;2730;51.512;7.504;2023-04-24T13:59:42;6.97;;;2.33;;
5414;SDS011;2730;51.512;7.504;2023-04-24T14:02:10;5.97;;;2.40;;
5414;SDS011;2730;51.512;7.504;2023-04-24T14:04:36;4.50;;;2.50;;
5414;SDS011;2730;51.512;7.504;2023-04-24T14:07:04;6.28;;;2.63;;
5414;SDS011;2730;51.512;7.504;2023-04-24T14:09:33;2.67;;;1.92;;
5414;SDS011;2730;51.512;7.504;2023-04-24T14:11:59;4.93;;;2.30;;
5414;SDS011;2730;51.512;7.504;2023-04-24T14:14:27;6.10;;;2.05;;
5414;SDS011;2730;51.512;7.504;2023-04-24T14:16:54;3.42;;;2.15;;
5414;SDS011;2730;51.512;7.504;2023-04-24T14:19:21;3.30;;;1.85;;
5414;SDS011;2730;51.512;7.504;2023-04-24T14:21:48;4.00;;;1.92;;
5414;SDS011;2730;51.512;7.504;2023-04-24T14:24:17;4.18;;;1.60;;
5414;SDS011;2730;51.512;7.504;2023-04-24T14:26:43;5.07;;;1.92;;
5414;SDS011;2730;51.512;7.504;2023-04-24T14:29:10;1.65;;;1.55;;
5414;SDS011;2730;51.512;7.504;2023-04-24T14:31:37;3.25;;;1.70;;
5414;SDS011;2730;51.512;7.504;2023-04-24T14:34:04;4.50;;;1.60;;
5414;SDS011;2730;51.512;7.504;2023-04-24T14:36:30;7.18;;;2.80;;
5414;SDS011;2730;51.512;7.504;2023-04-24T14:38:57;2.22;;;1.65;;
5414;SDS011;2730;51.512;7.504;2023-04-24T14:41:25;3.75;;;2.05;;
5414;SDS011;2730;51.512;7.504;2023-04-24T14:43:52;6.40;;;1.90;;
5414;SDS011;2730;51.512;7.504;2023-04-24T14:46:19;3.85;;;1.98;;
5414;SDS011;2730;51.512;7.504;2023-04-24T14:48:46;2.10;;;1.63;;
5414;SDS011;2730;51.512;7.504;2023-04-24T14:51:13;3.00;;;1.77;;
5414;SDS011;2730;51.512;7.504;2023-04-24T14:53:40;2.65;;;1.63;;
5414;SDS011;2730;51.512;7.504;2023-04-24T14:56:06;2.67;;;1.30;;
5414;SDS011;2730;51.512;7.504;2023-04-24T14:58:35;9.00;;;3.28;;
5414;SDS011;2730;51.512;7.504;2023-04-24T15:01:02;6.55;;;1.77;;
5414;SDS011;2730;51.512;7.504;2023-04-24T15:03:29;2.40;;;1.67;;
5414;SDS011;2730;51.512;7.504;2023-04-24T15:05:55;1.50;;;1.30;;
5414;SDS011;2730;51.512;7.504;2023-04-24T15:08:22;4.70;;;1.90;;
5414;SDS011;2730;51.512;7.504;2023-04-24T15:10:50;2.50;;;1.73;;
5414;SDS011;2730;51.512;7.504;2023-04-24T15:13:17;2.45;;;1.80;;
5414;SDS011;2730;51.512;7.504;2023-04-24T15:15:45;2.50;;;2.30;;
5414;SDS011;2730;51.512;7.504;2023-04-24T15:18:12;2.15;;;1.95;;
5414;SDS011;2730;51.512;7.504;2023-04-24T15:20:39;3.65;;;2.63;;